createdAt,value
2022-10-12T00:01:32.104Z,3.30
2022-10-12T00:03:58.885Z,3.83
2022-10-12T00:06:25.703Z,3.87
2022-10-12T00:08:54.260Z,3.60
2022-10-12T00:11:26.187Z,3.17
2022-10-12T00:13:54.499Z,3.23
2022-10-12T00:16:23.140Z,3.00
2022-10-12T00:18:54.470Z,3.10
2022-10-12T00:21:22.459Z,3.10
2022-10-12T00:23:49.806Z,3.53
2022-10-12T00:26:21.466Z,3.70
2022-10-12T00:28:49.232Z,2.67
2022-10-12T00:31:18.402Z,3.20
2022-10-12T00:33:46.701Z,3.00
2022-10-12T00:36:15.475Z,2.90
2022-10-12T00:38:42.259Z,3.00
2022-10-12T00:41:08.949Z,3.60
2022-10-12T00:43:39.113Z,3.57
2022-10-12T00:46:13.814Z,3.40
2022-10-12T00:48:41.333Z,3.30
2022-10-12T00:51:09.779Z,3.10
2022-10-12T00:53:42.564Z,3.40
2022-10-12T00:56:16.041Z,2.80
2022-10-12T00:58:42.924Z,2.63
2022-10-12T01:01:10.503Z,3.17
2022-10-12T01:03:37.593Z,3.00
2022-10-12T01:06:06.234Z,2.60
2022-10-12T01:08:33.491Z,3.30
2022-10-12T01:11:00.100Z,3.03
2022-10-12T01:13:26.937Z,3.77
2022-10-12T01:16:03.167Z,3.23
2022-10-12T01:18:40.298Z,2.90
2022-10-12T01:21:13.922Z,3.57
2022-10-12T01:23:55.801Z,2.80
2022-10-12T01:26:39.796Z,2.37
2022-10-12T01:29:40.451Z,3.00
2022-10-12T01:32:25.784Z,2.57
2022-10-12T01:35:05.316Z,2.97
2022-10-12T01:37:48.827Z,2.77
2022-10-12T01:40:24.140Z,3.30
2022-10-12T01:42:51.492Z,3.83
2022-10-12T01:45:19.205Z,2.97
2022-10-12T01:47:49.810Z,2.90
2022-10-12T01:50:17.481Z,3.60
2022-10-12T01:52:59.273Z,2.97
2022-10-12T01:55:39.575Z,3.00
2022-10-12T01:58:23.473Z,3.33
2022-10-12T02:01:29.032Z,2.90
2022-10-12T02:04:13.667Z,2.83
2022-10-12T02:06:47.132Z,2.90
2022-10-12T02:09:32.958Z,3.33
2022-10-12T02:12:05.524Z,2.60
2022-10-12T02:14:41.110Z,2.47
2022-10-12T02:17:12.370Z,2.70
2022-10-12T02:19:45.026Z,2.50
2022-10-12T02:22:35.668Z,2.87
2022-10-12T02:25:11.033Z,2.80
2022-10-12T02:27:42.325Z,2.17
2022-10-12T02:30:10.215Z,2.57
2022-10-12T02:32:42.180Z,2.77
2022-10-12T02:35:25.363Z,2.67
2022-10-12T02:37:54.839Z,2.67
2022-10-12T02:40:37.642Z,2.53
2022-10-12T02:43:13.646Z,3.07
2022-10-12T02:45:44.586Z,3.47
2022-10-12T02:48:16.135Z,2.63
2022-10-12T02:50:43.764Z,3.00
2022-10-12T02:53:12.532Z,2.80
2022-10-12T02:55:48.039Z,3.70
2022-10-12T02:58:14.709Z,2.97
2022-10-12T03:00:41.384Z,3.30
2022-10-12T03:03:07.990Z,3.10
2022-10-12T03:05:34.590Z,2.47
2022-10-12T03:08:01.208Z,2.60
2022-10-12T03:10:27.877Z,3.80
2022-10-12T03:12:54.698Z,3.53
2022-10-12T03:15:21.877Z,2.80
2022-10-12T03:17:48.511Z,2.77
2022-10-12T03:20:15.681Z,3.63
2022-10-12T03:22:42.297Z,2.60
2022-10-12T03:25:09.130Z,3.23
2022-10-12T03:27:39.003Z,3.20
2022-10-12T03:30:06.575Z,2.80
2022-10-12T03:32:33.376Z,2.70
2022-10-12T03:35:00.369Z,3.83
2022-10-12T03:37:27.189Z,2.90
2022-10-12T03:39:53.865Z,3.07
2022-10-12T03:42:20.758Z,2.80
2022-10-12T03:44:47.378Z,3.37
2022-10-12T03:47:14.030Z,3.10
2022-10-12T03:49:40.639Z,3.23
2022-10-12T03:52:07.720Z,2.90
2022-10-12T03:54:34.565Z,2.73
2022-10-12T03:57:01.225Z,2.80
2022-10-12T03:59:28.139Z,3.30
2022-10-12T04:01:54.885Z,2.63
2022-10-12T04:04:21.986Z,2.53
2022-10-12T04:06:48.679Z,2.80
2022-10-12T04:09:18.548Z,2.90
2022-10-12T04:11:45.141Z,3.30
2022-10-12T04:14:12.040Z,3.47
2022-10-12T04:16:38.765Z,2.70
2022-10-12T04:19:05.355Z,3.43
2022-10-12T04:21:32.101Z,3.17
2022-10-12T04:23:58.990Z,3.40
2022-10-12T04:26:25.607Z,3.50
2022-10-12T04:28:52.255Z,3.13
2022-10-12T04:31:18.946Z,3.13
2022-10-12T04:33:45.870Z,3.63
2022-10-12T04:36:12.669Z,3.23
2022-10-12T04:38:39.481Z,3.20
2022-10-12T04:41:09.206Z,5.07
2022-10-12T04:43:35.823Z,4.60
2022-10-12T04:46:02.965Z,3.10
2022-10-12T04:48:29.650Z,3.10
2022-10-12T04:50:58.596Z,2.70
2022-10-12T04:53:25.249Z,2.83
2022-10-12T04:55:51.876Z,3.40
2022-10-12T04:58:18.894Z,3.40
2022-10-12T05:00:47.988Z,3.40
2022-10-12T05:03:14.960Z,3.33
2022-10-12T05:05:44.534Z,3.53
2022-10-12T05:08:12.096Z,2.90
2022-10-12T05:10:39.944Z,3.30
2022-10-12T05:13:09.125Z,3.20
2022-10-12T05:15:35.873Z,3.63
2022-10-12T05:18:02.437Z,3.33
2022-10-12T05:20:29.048Z,2.70
2022-10-12T05:22:57.964Z,6.40
2022-10-12T05:25:24.815Z,4.20
2022-10-12T05:27:51.505Z,4.43
2022-10-12T05:30:18.258Z,3.73
2022-10-12T05:32:44.985Z,3.07
2022-10-12T05:35:11.767Z,3.20
2022-10-12T05:37:39.067Z,3.30
2022-10-12T05:40:06.996Z,3.20
2022-10-12T05:42:34.665Z,3.17
2022-10-12T05:45:01.820Z,3.00
2022-10-12T05:47:30.742Z,2.87
2022-10-12T05:49:57.315Z,3.90
2022-10-12T05:52:24.188Z,3.50
2022-10-12T05:54:50.901Z,3.73
2022-10-12T05:57:17.620Z,3.00
2022-10-12T05:59:46.458Z,3.17
2022-10-12T06:02:15.127Z,2.87
2022-10-12T06:04:41.980Z,3.20
2022-10-12T06:07:08.957Z,3.10
2022-10-12T06:09:38.778Z,3.57
2022-10-12T06:12:06.605Z,3.17
2022-10-12T06:14:33.526Z,3.27
2022-10-12T06:17:00.306Z,4.20
2022-10-12T06:19:27.078Z,3.30
2022-10-12T06:21:56.391Z,3.20
2022-10-12T06:24:23.034Z,3.63
2022-10-12T06:26:49.652Z,3.50
2022-10-12T06:29:17.460Z,3.80
2022-10-12T06:31:48.991Z,3.17
2022-10-12T06:34:18.429Z,3.27
2022-10-12T06:36:45.130Z,3.53
2022-10-12T06:39:11.979Z,3.40
2022-10-12T06:41:39.051Z,3.67
2022-10-12T06:44:08.851Z,4.17
2022-10-12T06:46:36.019Z,4.13
2022-10-12T06:49:03.667Z,2.87
2022-10-12T06:51:30.279Z,3.77
2022-10-12T06:53:57.062Z,3.47
2022-10-12T06:56:23.672Z,3.07
2022-10-12T06:58:57.247Z,3.20
2022-10-12T07:01:24.241Z,3.10
2022-10-12T07:03:51.808Z,3.37
2022-10-12T07:06:18.869Z,2.67
2022-10-12T07:08:45.932Z,3.90
2022-10-12T07:11:13.549Z,3.43
2022-10-12T07:13:40.454Z,3.83
2022-10-12T07:16:07.481Z,3.20
2022-10-12T07:18:34.551Z,2.87
2022-10-12T07:21:02.689Z,3.87
2022-10-12T07:23:33.521Z,2.90
2022-10-12T07:26:00.658Z,3.20
2022-10-12T07:28:28.035Z,3.13
2022-10-12T07:30:54.766Z,3.33
2022-10-12T07:33:21.405Z,3.30
2022-10-12T07:36:13.308Z,3.67
2022-10-12T07:38:43.992Z,3.20
2022-10-12T07:41:11.362Z,3.30
2022-10-12T07:43:39.009Z,3.30
2022-10-12T07:46:06.211Z,3.77
2022-10-12T07:48:34.054Z,6.30
2022-10-12T07:51:05.405Z,8.33
2022-10-12T07:53:34.256Z,6.63
2022-10-12T07:56:06.827Z,5.93
2022-10-12T07:58:33.880Z,5.43
2022-10-12T08:01:08.161Z,10.97
2022-10-12T08:03:35.361Z,5.60
2022-10-12T08:06:12.944Z,5.33
2022-10-12T08:08:40.318Z,4.57
2022-10-12T08:11:08.108Z,4.57
2022-10-12T08:13:35.444Z,4.70
2022-10-12T08:16:04.838Z,4.00
2022-10-12T08:18:31.881Z,4.00
2022-10-12T08:20:58.592Z,4.40
2022-10-12T08:23:25.672Z,4.50
2022-10-12T08:25:53.605Z,4.87
2022-10-12T08:28:20.704Z,5.20
2022-10-12T08:30:47.394Z,5.07
2022-10-12T08:33:15.392Z,4.70
2022-10-12T08:35:42.804Z,4.40
2022-10-12T08:38:11.302Z,5.57
2022-10-12T08:40:47.047Z,5.40
2022-10-12T08:43:46.249Z,5.03
2022-10-12T08:46:13.345Z,4.37
2022-10-12T08:48:52.369Z,4.47
2022-10-12T08:51:24.655Z,4.70
2022-10-12T08:53:57.384Z,3.70
2022-10-12T08:56:24.862Z,4.00
2022-10-12T08:58:53.101Z,4.27
2022-10-12T09:01:19.763Z,3.97
2022-10-12T09:04:25.783Z,4.33
2022-10-12T09:07:10.526Z,4.20
2022-10-12T09:10:05.197Z,4.43
2022-10-12T09:12:46.779Z,4.27
2022-10-12T09:15:31.012Z,4.50
2022-10-12T09:18:00.336Z,7.27
2022-10-12T09:20:54.303Z,8.03
2022-10-12T09:23:30.601Z,10.83
2022-10-12T09:26:04.368Z,6.60
2022-10-12T09:28:49.051Z,13.17
2022-10-12T09:31:50.763Z,11.90
2022-10-12T09:34:19.395Z,6.80
2022-10-12T09:36:46.531Z,8.97
2022-10-12T09:39:18.713Z,9.60
2022-10-12T09:41:47.475Z,6.03
2022-10-12T09:44:28.422Z,6.07
2022-10-12T09:47:21.817Z,5.10
2022-10-12T09:49:50.397Z,4.93
2022-10-12T09:52:24.804Z,5.03
2022-10-12T09:55:05.283Z,5.37
2022-10-12T09:57:36.851Z,6.00
2022-10-12T10:00:08.697Z,5.97
2022-10-12T10:02:50.295Z,5.77
2022-10-12T10:05:32.116Z,5.60
2022-10-12T10:08:14.060Z,5.43
2022-10-12T10:10:55.509Z,5.60
2022-10-12T10:13:26.495Z,5.50
2022-10-12T10:16:04.828Z,5.17
2022-10-12T10:18:39.328Z,5.83
2022-10-12T10:21:14.649Z,5.83
2022-10-12T10:23:54.866Z,6.00
2022-10-12T10:26:24.037Z,7.07
2022-10-12T10:28:56.750Z,5.93
2022-10-12T10:31:28.018Z,6.10
2022-10-12T10:34:15.947Z,8.07
2022-10-12T10:36:56.422Z,6.53
2022-10-12T10:39:31.391Z,5.33
2022-10-12T10:42:12.789Z,6.70
2022-10-12T10:44:39.647Z,5.73
2022-10-12T10:47:12.649Z,5.40
2022-10-12T10:49:45.650Z,5.63
2022-10-12T10:52:26.658Z,5.93
2022-10-12T10:55:18.272Z,5.40
2022-10-12T10:57:54.914Z,5.50
2022-10-12T11:00:40.286Z,5.40
2022-10-12T11:03:25.546Z,5.37
2022-10-12T11:05:59.594Z,6.57
2022-10-12T11:08:30.395Z,7.03
2022-10-12T11:11:06.947Z,5.90
2022-10-12T11:13:55.673Z,6.33
2022-10-12T11:16:36.069Z,5.93
2022-10-12T11:19:18.164Z,6.83
2022-10-12T11:21:54.958Z,6.27
2022-10-12T11:24:31.912Z,6.77
2022-10-12T11:27:11.244Z,6.70
2022-10-12T11:29:38.403Z,6.60
2022-10-12T11:32:31.566Z,6.37
2022-10-12T11:35:03.035Z,6.83
2022-10-12T11:37:39.794Z,6.90
2022-10-12T11:40:17.215Z,81.37
2022-10-12T11:42:43.999Z,19.57
2022-10-12T11:45:20.888Z,14.97
2022-10-12T11:47:55.249Z,23.60
2022-10-12T11:50:37.052Z,8.77
2022-10-12T11:53:11.230Z,7.23
2022-10-12T11:55:44.435Z,7.90
2022-10-12T11:58:24.452Z,7.37
2022-10-12T12:01:22.628Z,35.33
2022-10-12T12:04:36.845Z,9.97
2022-10-12T12:07:06.794Z,8.70
2022-10-12T12:09:45.320Z,9.40
2022-10-12T12:12:28.273Z,8.00
2022-10-12T12:14:54.922Z,13.50
2022-10-12T12:17:26.942Z,10.23
2022-10-12T12:19:59.619Z,8.87
2022-10-12T12:22:44.890Z,13.53
2022-10-12T12:25:11.433Z,16.60
2022-10-12T12:28:15.477Z,9.63
2022-10-12T12:30:54.620Z,9.13
2022-10-12T12:33:21.131Z,8.93
2022-10-12T12:35:56.507Z,8.23
2022-10-12T12:38:28.127Z,8.60
2022-10-12T12:41:13.607Z,8.30
2022-10-12T12:43:56.063Z,8.33
2022-10-12T12:46:25.812Z,7.53
2022-10-12T12:48:52.360Z,7.93
2022-10-12T12:51:35.776Z,8.73
2022-10-12T12:54:20.461Z,27.07
2022-10-12T12:57:08.916Z,26.47
2022-10-12T13:00:04.294Z,13.53
2022-10-12T13:02:50.791Z,11.17
2022-10-12T13:05:57.226Z,8.53
2022-10-12T13:08:39.305Z,33.57
2022-10-12T13:11:33.639Z,34.23
2022-10-12T13:14:39.203Z,55.43
2022-10-12T13:17:40.430Z,34.87
2022-10-12T13:20:29.744Z,9.83
2022-10-12T13:22:58.326Z,8.37
2022-10-12T13:25:58.925Z,9.23
2022-10-12T13:28:29.513Z,8.57
2022-10-12T13:31:04.335Z,7.90
2022-10-12T13:33:41.473Z,10.20
2022-10-12T13:36:21.391Z,9.90
2022-10-12T13:38:48.246Z,9.83
2022-10-12T13:41:18.912Z,9.00
2022-10-12T13:43:48.638Z,7.90
2022-10-12T13:46:35.873Z,8.43
2022-10-12T13:49:04.294Z,8.47
2022-10-12T13:51:31.865Z,9.17
2022-10-12T13:53:58.619Z,9.13
2022-10-12T13:56:28.185Z,7.93
2022-10-12T13:59:04.126Z,9.23
2022-10-12T14:01:35.377Z,8.23
2022-10-12T14:04:05.463Z,8.20
2022-10-12T14:06:35.276Z,8.83
2022-10-12T14:09:17.128Z,9.10
2022-10-12T14:11:45.213Z,8.60
2022-10-12T14:14:29.884Z,8.47
2022-10-12T14:16:56.719Z,6.60
2022-10-12T14:19:36.066Z,7.80
2022-10-12T14:22:03.433Z,7.50
2022-10-12T14:24:30.748Z,7.27
2022-10-12T14:27:02.829Z,9.03
2022-10-12T14:29:32.571Z,7.23
2022-10-12T14:32:01.940Z,7.80
2022-10-12T14:34:31.934Z,7.23
2022-10-12T14:37:04.847Z,7.13
2022-10-12T14:39:31.919Z,32.07
2022-10-12T14:42:18.016Z,11.57
2022-10-12T14:44:44.847Z,30.47
2022-10-12T14:47:20.516Z,23.73
2022-10-12T14:49:49.134Z,10.70
2022-10-12T14:52:37.870Z,13.90
2022-10-12T14:55:05.625Z,21.67
2022-10-12T14:57:32.648Z,12.70
2022-10-12T14:59:59.256Z,14.97
2022-10-12T15:02:28.344Z,15.37
2022-10-12T15:04:56.471Z,20.17
2022-10-12T15:07:25.915Z,17.90
2022-10-12T15:09:53.430Z,19.70
2022-10-12T15:12:22.677Z,13.73
2022-10-12T15:14:51.481Z,13.53
2022-10-12T15:17:19.371Z,8.53
2022-10-12T15:19:48.647Z,8.20
2022-10-12T15:22:24.023Z,8.40
2022-10-12T15:24:52.982Z,11.53
2022-10-12T15:27:20.344Z,9.17
2022-10-12T15:29:48.081Z,9.10
2022-10-12T15:32:17.748Z,8.03
2022-10-12T15:34:45.145Z,18.37
2022-10-12T15:37:12.245Z,40.80
2022-10-12T15:39:39.185Z,42.23
2022-10-12T15:42:06.124Z,21.00
2022-10-12T15:44:42.651Z,39.63
2022-10-12T15:47:10.991Z,15.97
2022-10-12T15:49:38.490Z,13.33
2022-10-12T15:52:06.337Z,13.73
2022-10-12T15:54:32.949Z,11.73
2022-10-12T15:56:59.796Z,16.20
2022-10-12T15:59:27.245Z,12.90
2022-10-12T16:01:54.424Z,16.63
2022-10-12T16:04:21.188Z,8.47
2022-10-12T16:06:47.780Z,7.07
2022-10-12T16:09:14.439Z,7.70
2022-10-12T16:11:41.492Z,7.20
2022-10-12T16:14:10.679Z,7.43
2022-10-12T16:16:37.734Z,7.83
2022-10-12T16:19:04.736Z,8.30
2022-10-12T16:21:31.351Z,9.80
2022-10-12T16:23:59.030Z,9.87
2022-10-12T16:26:27.173Z,8.80
2022-10-12T16:28:53.777Z,8.77
2022-10-12T16:31:20.517Z,9.33
2022-10-12T16:33:47.998Z,8.57
2022-10-12T16:36:16.584Z,8.30
2022-10-12T16:38:43.906Z,9.50
2022-10-12T16:41:12.392Z,10.10
2022-10-12T16:43:39.157Z,8.77
2022-10-12T16:46:06.707Z,7.93
2022-10-12T16:48:33.729Z,9.33
2022-10-12T16:51:00.546Z,8.17
2022-10-12T16:53:27.495Z,9.40
2022-10-12T16:55:56.477Z,10.67
2022-10-12T16:58:23.333Z,10.63
2022-10-12T17:00:50.100Z,11.47
2022-10-12T17:03:16.800Z,16.70
2022-10-12T17:05:43.422Z,13.77
2022-10-12T17:08:15.334Z,11.00
2022-10-12T17:10:44.118Z,8.83
2022-10-12T17:13:13.186Z,10.63
2022-10-12T17:15:41.553Z,10.53
2022-10-12T17:18:08.763Z,9.60
2022-10-12T17:20:36.473Z,8.73
2022-10-12T17:23:03.967Z,8.43
2022-10-12T17:25:30.651Z,12.33
2022-10-12T17:27:57.351Z,13.23
2022-10-12T17:30:24.035Z,16.10
2022-10-12T17:32:50.750Z,15.97
2022-10-12T17:35:17.538Z,20.67
2022-10-12T17:37:44.348Z,19.67
2022-10-12T17:40:11.447Z,21.83
2022-10-12T17:42:38.192Z,15.17
2022-10-12T17:45:05.282Z,10.87
2022-10-12T17:47:31.988Z,11.13
2022-10-12T17:49:58.578Z,8.73
2022-10-12T17:52:25.236Z,8.17
2022-10-12T17:54:51.795Z,8.97
2022-10-12T17:57:18.867Z,8.60
2022-10-12T17:59:45.939Z,13.00
2022-10-12T18:02:12.630Z,11.77
2022-10-12T18:04:39.321Z,12.43
2022-10-12T18:07:05.951Z,9.70
2022-10-12T18:09:32.538Z,11.17
2022-10-12T18:11:59.164Z,10.73
2022-10-12T18:14:25.850Z,7.87
2022-10-12T18:16:54.265Z,7.67
2022-10-12T18:19:20.998Z,7.60
2022-10-12T18:21:47.641Z,7.83
2022-10-12T18:24:17.553Z,7.87
2022-10-12T18:26:45.901Z,7.20
2022-10-12T18:29:15.425Z,7.43
2022-10-12T18:31:42.140Z,7.27
2022-10-12T18:34:09.035Z,7.83
2022-10-12T18:36:35.710Z,7.57
2022-10-12T18:39:04.599Z,7.33
2022-10-12T18:41:31.688Z,6.43
2022-10-12T18:44:00.605Z,7.73
2022-10-12T18:46:29.102Z,8.90
2022-10-12T18:48:56.116Z,8.10
2022-10-12T18:51:29.751Z,8.50
2022-10-12T18:53:57.881Z,7.80
2022-10-12T18:56:25.639Z,8.13
2022-10-12T18:58:52.564Z,8.97
2022-10-12T19:01:22.708Z,9.07
2022-10-12T19:03:50.115Z,9.10
2022-10-12T19:06:20.294Z,15.23
2022-10-12T19:08:50.556Z,10.80
2022-10-12T19:11:20.055Z,12.07
2022-10-12T19:13:55.289Z,8.93
2022-10-12T19:16:23.039Z,7.33
2022-10-12T19:18:55.630Z,7.00
2022-10-12T19:21:22.514Z,6.67
2022-10-12T19:23:49.090Z,7.47
2022-10-12T19:26:18.190Z,7.87
2022-10-12T19:28:45.963Z,10.23
2022-10-12T19:31:21.881Z,13.77
2022-10-12T19:33:49.296Z,11.33
2022-10-12T19:36:18.317Z,9.97
2022-10-12T19:38:46.305Z,11.13
2022-10-12T19:41:13.227Z,11.17
2022-10-12T19:43:40.824Z,8.63
2022-10-12T19:46:10.406Z,9.50
2022-10-12T19:48:40.994Z,9.83
2022-10-12T19:51:12.973Z,7.77
2022-10-12T19:53:40.678Z,10.40
2022-10-12T19:56:15.716Z,10.97
2022-10-12T19:58:45.114Z,10.03
2022-10-12T20:01:14.847Z,12.00
2022-10-12T20:03:47.455Z,11.20
2022-10-12T20:06:14.814Z,8.00
2022-10-12T20:08:42.980Z,9.60
2022-10-12T20:11:16.956Z,8.33
2022-10-12T20:13:46.185Z,8.73
2022-10-12T20:16:14.042Z,9.70
2022-10-12T20:18:41.048Z,8.87
2022-10-12T20:21:09.906Z,10.10
2022-10-12T20:23:38.100Z,10.03
2022-10-12T20:26:08.204Z,10.13
2022-10-12T20:28:36.520Z,21.00
2022-10-12T20:31:05.918Z,15.27
2022-10-12T20:33:39.923Z,15.27
2022-10-12T20:36:27.493Z,10.33
2022-10-12T20:38:54.480Z,10.00
2022-10-12T20:41:25.398Z,9.70
2022-10-12T20:44:00.252Z,9.60
2022-10-12T20:46:28.191Z,9.93
2022-10-12T20:48:58.979Z,9.93
2022-10-12T20:51:32.258Z,10.13
2022-10-12T20:54:00.856Z,10.13
2022-10-12T20:56:29.170Z,10.63
2022-10-12T20:58:56.027Z,11.10
2022-10-12T21:01:24.345Z,10.73
2022-10-12T21:03:52.675Z,11.70
2022-10-12T21:06:21.535Z,10.93
2022-10-12T21:08:53.675Z,10.47
2022-10-12T21:11:21.595Z,9.90
2022-10-12T21:13:48.643Z,10.50
2022-10-12T21:16:16.504Z,11.07
2022-10-12T21:18:43.708Z,11.07
2022-10-12T21:21:14.107Z,10.03
2022-10-12T21:23:41.977Z,9.70
2022-10-12T21:26:17.102Z,10.20
2022-10-12T21:28:44.824Z,11.93
2022-10-12T21:31:13.123Z,11.77
2022-10-12T21:33:40.449Z,10.77
2022-10-12T21:36:10.236Z,11.67
2022-10-12T21:38:37.305Z,9.83
2022-10-12T21:41:05.164Z,11.70
2022-10-12T21:43:35.262Z,10.50
2022-10-12T21:46:10.508Z,11.10
2022-10-12T21:48:37.561Z,11.43
2022-10-12T21:51:05.861Z,11.10
2022-10-12T21:53:34.739Z,10.60
2022-10-12T21:56:14.300Z,11.37
2022-10-12T21:58:41.208Z,11.97
2022-10-12T22:01:10.963Z,11.80
2022-10-12T22:03:37.860Z,11.90
2022-10-12T22:06:04.859Z,10.27
2022-10-12T22:08:32.236Z,11.23
2022-10-12T22:11:06.986Z,11.40
2022-10-12T22:13:34.628Z,11.40
2022-10-12T22:16:04.053Z,10.67
2022-10-12T22:18:31.008Z,11.13
2022-10-12T22:20:58.044Z,11.17
2022-10-12T22:23:24.733Z,11.47
2022-10-12T22:25:53.328Z,10.07
2022-10-12T22:28:20.007Z,9.70
2022-10-12T22:30:46.927Z,10.13
2022-10-12T22:33:13.640Z,10.63
2022-10-12T22:35:40.214Z,10.40
2022-10-12T22:38:06.810Z,11.10
2022-10-12T22:40:33.472Z,10.53
2022-10-12T22:43:00.196Z,15.10
2022-10-12T22:45:28.137Z,17.60
2022-10-12T22:47:54.916Z,12.80
2022-10-12T22:50:21.698Z,11.27
2022-10-12T22:52:48.676Z,10.93
2022-10-12T22:55:15.657Z,13.53
2022-10-12T22:57:42.337Z,11.83
2022-10-12T23:00:09.464Z,15.53
2022-10-12T23:02:36.077Z,14.37
2022-10-12T23:05:03.399Z,14.93
2022-10-12T23:07:30.091Z,12.70
2022-10-12T23:09:56.680Z,12.30
2022-10-12T23:12:23.353Z,16.50
2022-10-12T23:14:51.246Z,14.67
2022-10-12T23:17:17.879Z,15.87
2022-10-12T23:19:44.447Z,11.37
2022-10-12T23:22:11.220Z,11.67
2022-10-12T23:24:40.182Z,12.73
2022-10-12T23:27:06.808Z,12.33
2022-10-12T23:29:33.585Z,13.67
2022-10-12T23:32:00.306Z,11.30
2022-10-12T23:34:26.983Z,11.43
2022-10-12T23:36:53.873Z,10.50
2022-10-12T23:39:22.267Z,11.20
2022-10-12T23:41:49.767Z,10.37
2022-10-12T23:44:16.806Z,10.27
2022-10-12T23:46:44.486Z,10.60
2022-10-12T23:49:11.503Z,9.60
2022-10-12T23:51:39.870Z,9.80
2022-10-12T23:54:06.917Z,9.13
2022-10-12T23:56:34.235Z,9.17
2022-10-12T23:59:01.342Z,9.67
